Time;durP1;ratioP1;P1;durP2;ratioP2;P2;SDS_P1;SDS_P2;PMS_P1;PMS_P2;Temp;Humidity;BMP_temperature;BMP_pressure;BME280_temperature;BME280_humidity;BME280_pressure;Samples;Min_cycle;Max_cycle;Signal;HPM_P1;HPM_P2
2023/02/03 00:00:12;;;;;;;14.77;3.87;;;10.00;99.90;;;;;;5093616;28;20201;-86
2023/02/03 00:02:39;;;;;;;8.73;3.23;;;10.00;99.90;;;;;;5093774;28;20223;-91
2023/02/03 00:05:31;;;;;;;9.67;3.30;;;10.00;99.90;;;;;;5091197;28;20209;-90
2023/02/03 00:08:02;;;;;;;11.03;3.10;;;10.00;99.90;;;;;;5087535;28;20201;-90
2023/02/03 00:10:38;;;;;;;12.80;2.90;;;10.00;99.90;;;;;;5085012;28;20207;-93
2023/02/03 00:13:08;;;;;;;12.10;3.93;;;10.00;99.90;;;;;;5097644;28;20232;-92
2023/02/03 00:15:41;;;;;;;7.97;3.20;;;10.00;99.90;;;;;;5088011;28;20200;-94
2023/02/03 00:18:08;;;;;;;10.30;3.10;;;10.00;99.90;;;;;;5087341;28;20289;-92
2023/02/03 00:20:47;;;;;;;8.63;3.50;;;10.10;99.90;;;;;;5089232;28;20553;-93
2023/02/03 00:23:20;;;;;;;15.30;3.70;;;10.00;99.90;;;;;;5098523;28;20568;-93
2023/02/03 00:26:13;;;;;;;7.13;2.50;;;10.00;99.90;;;;;;5097622;28;20220;-94
2023/02/03 00:28:46;;;;;;;9.20;2.60;;;10.00;99.90;;;;;;5083675;28;20219;-92
2023/02/03 00:31:17;;;;;;;10.47;2.60;;;10.00;99.90;;;;;;5084213;28;20206;-94
2023/02/03 00:33:44;;;;;;;13.47;3.10;;;10.00;99.90;;;;;;5077319;28;20233;-94
2023/02/03 00:36:12;;;;;;;12.98;3.17;;;10.00;99.90;;;;;;5076365;28;20427;-91
2023/02/03 00:38:42;;;;;;;7.13;2.20;;;10.10;99.90;;;;;;5077801;28;20210;-91
2023/02/03 00:41:16;;;;;;;10.43;2.90;;;10.10;99.90;;;;;;5077427;28;20213;-92
2023/02/03 00:43:49;;;;;;;12.60;3.67;;;10.10;99.90;;;;;;5076902;28;20234;-91
2023/02/03 00:46:18;;;;;;;7.87;2.20;;;10.20;99.90;;;;;;5077294;28;20758;-92
2023/02/03 00:48:48;;;;;;;11.13;2.57;;;10.10;99.90;;;;;;5077273;28;20670;-91
2023/02/03 00:51:24;;;;;;;11.20;2.27;;;10.20;99.90;;;;;;5077017;28;20207;-91
2023/02/03 00:54:04;;;;;;;10.80;2.83;;;10.20;99.90;;;;;;5077402;28;20233;-91
2023/02/03 00:56:35;;;;;;;10.30;2.50;;;10.20;99.90;;;;;;5077511;28;20206;-94
2023/02/03 00:59:05;;;;;;;10.07;2.53;;;10.30;99.90;;;;;;5076961;28;20207;-91
2023/02/03 01:01:38;;;;;;;9.87;2.57;;;10.20;99.90;;;;;;5077512;28;20203;-93
2023/02/03 01:04:06;;;;;;;8.43;2.30;;;10.20;99.90;;;;;;5076684;28;20552;-91
2023/02/03 01:06:36;;;;;;;16.00;2.57;;;10.30;99.90;;;;;;5076735;28;20611;-90
2023/02/03 01:09:09;;;;;;;12.60;2.50;;;10.20;99.90;;;;;;5077494;28;20273;-92
2023/02/03 01:11:43;;;;;;;9.40;2.20;;;10.30;99.90;;;;;;5076921;28;20198;-95
2023/02/03 01:14:11;;;;;;;9.23;2.00;;;10.30;99.90;;;;;;5080483;28;20214;-92
2023/02/03 01:16:41;;;;;;;7.13;1.60;;;10.30;99.90;;;;;;5096888;28;20201;-92
2023/02/03 01:19:15;;;;;;;11.63;2.23;;;10.40;99.90;;;;;;5097246;28;20666;-94
2023/02/03 01:21:45;;;;;;;10.73;2.40;;;10.30;99.90;;;;;;5097119;28;20203;-92
2023/02/03 01:24:13;;;;;;;7.77;2.33;;;10.10;99.90;;;;;;5096884;28;20667;-93
2023/02/03 01:26:45;;;;;;;9.20;2.57;;;10.10;99.90;;;;;;5096724;28;20201;-91
2023/02/03 01:29:15;;;;;;;10.93;2.47;;;10.20;99.90;;;;;;5096729;28;20221;-92
2023/02/03 01:31:43;;;;;;;7.77;2.03;;;10.10;99.90;;;;;;5096928;28;20658;-93
2023/02/03 01:34:17;;;;;;;8.77;2.03;;;10.10;99.90;;;;;;5097248;28;20221;-91
2023/02/03 01:36:45;;;;;;;10.23;2.53;;;10.10;99.90;;;;;;5097832;28;20240;-92
2023/02/03 01:39:15;;;;;;;7.10;1.90;;;10.20;99.90;;;;;;5098741;28;20297;-93
2023/02/03 01:41:49;;;;;;;5.53;1.83;;;10.30;99.90;;;;;;5098339;28;20201;-90
2023/02/03 01:44:40;;;;;;;6.90;1.80;;;10.20;99.90;;;;;;5104652;28;20220;-92
2023/02/03 01:47:14;;;;;;;7.33;2.00;;;10.20;99.90;;;;;;5116929;28;20223;-85
2023/02/03 01:49:44;;;;;;;8.93;2.17;;;10.20;99.90;;;;;;5115193;28;20272;-90
2023/02/03 01:52:13;;;;;;;9.43;1.80;;;10.20;99.90;;;;;;5114943;28;20208;-91
2023/02/03 01:54:45;;;;;;;7.67;2.10;;;10.20;99.90;;;;;;5107615;28;20212;-91
2023/02/03 01:57:21;;;;;;;9.23;2.30;;;10.20;99.90;;;;;;5097253;28;20204;-90
2023/02/03 01:59:57;;;;;;;6.87;2.17;;;10.20;99.90;;;;;;5096817;28;20296;-94
2023/02/03 02:02:27;;;;;;;10.53;2.47;;;10.20;99.90;;;;;;5097523;28;20205;-89
2023/02/03 02:05:06;;;;;;;8.20;1.90;;;10.20;99.90;;;;;;5097323;28;20576;-90
2023/02/03 02:07:37;;;;;;;9.37;2.00;;;10.10;99.90;;;;;;5096827;28;20517;-88
2023/02/03 02:10:08;;;;;;;7.27;2.37;;;10.20;99.90;;;;;;5096047;28;20250;-90
2023/02/03 02:12:39;;;;;;;6.47;1.97;;;10.20;99.90;;;;;;5095576;28;20596;-93
2023/02/03 02:15:07;;;;;;;9.67;1.93;;;10.20;99.90;;;;;;5095686;28;20714;-92
2023/02/03 02:17:51;;;;;;;6.23;2.30;;;10.10;99.90;;;;;;5095922;28;20209;-91
2023/02/03 02:20:56;;;;;;;10.60;2.23;;;10.10;99.90;;;;;;5095512;28;20225;-84
2023/02/03 02:23:53;;;;;;;9.00;2.13;;;10.10;99.90;;;;;;5093733;28;20208;-93
2023/02/03 02:26:41;;;;;;;7.60;2.53;;;10.10;99.90;;;;;;5096574;28;20199;-91
2023/02/03 02:29:37;;;;;;;8.97;2.50;;;10.10;99.90;;;;;;5095860;28;20215;-95
2023/02/03 02:32:28;;;;;;;4.73;1.67;;;10.20;99.90;;;;;;5095587;28;20209;-93
2023/02/03 02:35:08;;;;;;;4.47;1.47;;;10.20;99.90;;;;;;5095524;28;20298;-91
2023/02/03 02:37:45;;;;;;;10.47;1.53;;;10.20;99.90;;;;;;5095058;28;20209;-90
2023/02/03 02:40:26;;;;;;;8.43;2.00;;;10.20;99.90;;;;;;5095129;28;20199;-87
2023/02/03 02:43:10;;;;;;;7.83;1.60;;;10.20;99.90;;;;;;5095185;28;20207;-91
2023/02/03 02:45:49;;;;;;;8.60;1.73;;;10.20;99.90;;;;;;5095828;28;20205;-89
2023/02/03 02:48:24;;;;;;;9.27;1.73;;;10.10;99.90;;;;;;5096369;28;20201;-89
2023/02/03 02:51:18;;;;;;;9.73;2.00;;;10.10;99.90;;;;;;5095113;28;20201;-88
2023/02/03 02:53:56;;;;;;;12.07;1.80;;;10.10;99.90;;;;;;5096148;28;20585;-92
2023/02/03 02:56:34;;;;;;;9.40;2.30;;;10.10;99.90;;;;;;5096095;28;20796;-92
2023/02/03 02:59:03;;;;;;;6.77;1.87;;;10.10;99.90;;;;;;5095308;28;20208;-88
2023/02/03 03:01:33;;;;;;;4.70;2.10;;;10.10;99.90;;;;;;5095332;28;20197;-91
2023/02/03 03:04:08;;;;;;;8.07;2.53;;;10.10;99.90;;;;;;5095330;28;20196;-92
2023/02/03 03:06:44;;;;;;;8.20;1.73;;;10.10;99.90;;;;;;5094954;28;20295;-91
2023/02/03 03:09:19;;;;;;;6.93;1.63;;;10.10;99.90;;;;;;5095336;28;20205;-90
2023/02/03 03:11:50;;;;;;;9.60;2.13;;;10.10;99.90;;;;;;5096798;28;20539;-90
2023/02/03 03:14:27;;;;;;;7.17;1.60;;;10.20;99.90;;;;;;5095097;28;20225;-91
2023/02/03 03:17:00;;;;;;;6.50;1.60;;;10.20;99.90;;;;;;5095488;28;20208;-93
2023/02/03 03:19:38;;;;;;;7.37;1.70;;;10.20;99.90;;;;;;5095280;28;20200;-92
2023/02/03 03:22:11;;;;;;;7.43;1.87;;;10.10;99.90;;;;;;5096367;28;20644;-92
2023/02/03 03:24:43;;;;;;;10.03;1.87;;;10.10;99.90;;;;;;5095694;28;20541;-94
2023/02/03 03:27:20;;;;;;;6.53;1.90;;;10.20;99.90;;;;;;5094301;28;20193;-91
2023/02/03 03:29:56;;;;;;;7.50;1.87;;;10.20;99.90;;;;;;5093805;28;20197;-92
2023/02/03 03:32:31;;;;;;;4.83;1.63;;;10.10;99.90;;;;;;5096969;28;20236;-91
2023/02/03 03:35:05;;;;;;;5.43;1.87;;;10.10;99.90;;;;;;5095632;28;20259;-93
2023/02/03 03:37:51;;;;;;;9.93;1.97;;;10.00;99.90;;;;;;5094362;28;20220;-91
2023/02/03 03:40:23;;;;;;;4.17;1.13;;;10.20;99.90;;;;;;5095604;28;20565;-93
2023/02/03 03:42:53;;;;;;;5.20;1.50;;;10.10;99.90;;;;;;5096562;28;20658;-91
2023/02/03 03:45:25;;;;;;;6.60;1.90;;;10.10;99.90;;;;;;5098791;28;20223;-92
2023/02/03 03:48:01;;;;;;;6.37;1.90;;;10.10;99.90;;;;;;5098138;28;20205;-87
2023/02/03 03:50:32;;;;;;;10.13;1.67;;;10.00;99.90;;;;;;5098205;28;20215;-88
2023/02/03 03:53:05;;;;;;;5.17;1.40;;;10.10;99.90;;;;;;5098200;28;20215;-90
2023/02/03 03:55:39;;;;;;;6.67;1.73;;;10.20;99.90;;;;;;5097444;28;20236;-89
2023/02/03 03:58:12;;;;;;;9.90;1.50;;;10.20;99.90;;;;;;5097711;28;20208;-85
2023/02/03 04:00:41;;;;;;;3.03;1.60;;;10.10;99.90;;;;;;5096983;28;20209;-84
2023/02/03 04:03:15;;;;;;;4.37;1.30;;;10.10;99.90;;;;;;5097461;28;20209;-89
2023/02/03 04:05:47;;;;;;;7.50;1.47;;;10.10;99.90;;;;;;5096208;28;20196;-89
2023/02/03 04:08:15;;;;;;;7.33;1.40;;;10.10;99.90;;;;;;5097342;28;20189;-90
2023/02/03 04:10:47;;;;;;;3.03;1.33;;;10.00;99.90;;;;;;5097335;28;20205;-89
2023/02/03 04:13:14;;;;;;;5.73;1.50;;;10.10;99.90;;;;;;5097485;28;20633;-90
2023/02/03 04:15:42;;;;;;;1.90;1.00;;;10.00;99.90;;;;;;5096654;28;20307;-89
2023/02/03 04:18:16;;;;;;;7.57;1.73;;;10.10;99.90;;;;;;5097463;28;20211;-88
2023/02/03 04:20:50;;;;;;;5.73;1.53;;;10.10;99.90;;;;;;5097204;28;20212;-88
2023/02/03 04:23:23;;;;;;;4.13;1.30;;;10.10;99.90;;;;;;5096823;28;20193;-88
2023/02/03 04:25:50;;;;;;;6.97;1.50;;;10.10;99.90;;;;;;5097082;28;20213;-81
2023/02/03 04:28:20;;;;;;;6.13;1.57;;;10.10;99.90;;;;;;5096692;28;20201;-86
2023/02/03 04:30:52;;;;;;;3.93;1.20;;;10.00;99.90;;;;;;5096706;28;20547;-85
2023/02/03 04:33:20;;;;;;;3.60;1.33;;;10.00;99.90;;;;;;5096722;28;20207;-85
2023/02/03 04:35:51;;;;;;;3.20;1.10;;;10.00;99.90;;;;;;5096231;28;20224;-88
2023/02/03 04:38:19;;;;;;;3.97;0.97;;;10.00;99.90;;;;;;5096768;28;20201;-86
2023/02/03 04:40:46;;;;;;;7.10;1.63;;;10.00;99.90;;;;;;5096424;28;20224;-86
2023/02/03 04:43:15;;;;;;;3.33;1.00;;;10.10;99.90;;;;;;5098043;28;20212;-86
2023/02/03 04:45:43;;;;;;;3.23;1.40;;;10.00;99.90;;;;;;5097410;28;20212;-87
2023/02/03 04:48:18;;;;;;;5.03;1.47;;;10.10;99.90;;;;;;5100089;28;20252;-91
2023/02/03 04:50:45;;;;;;;2.70;1.03;;;10.00;99.90;;;;;;5101382;28;20200;-92
2023/02/03 04:53:15;;;;;;;3.53;1.30;;;10.00;99.90;;;;;;5100987;28;20572;-92
2023/02/03 04:55:48;;;;;;;6.27;1.60;;;10.00;99.90;;;;;;5098298;28;20224;-91
2023/02/03 04:58:16;;;;;;;8.00;1.67;;;10.10;99.90;;;;;;5105440;28;20205;-89
2023/02/03 05:00:43;;;;;;;4.70;1.20;;;10.10;99.90;;;;;;5108310;28;20205;-91
2023/02/03 05:03:14;;;;;;;5.57;1.00;;;10.10;99.90;;;;;;5106263;28;20636;-91
2023/02/03 05:05:40;;;;;;;2.60;1.07;;;10.10;99.90;;;;;;5099694;28;20204;-91
2023/02/03 05:08:08;;;;;;;3.40;1.00;;;10.10;99.90;;;;;;5099007;28;20195;-89
2023/02/03 05:10:40;;;;;;;3.03;1.30;;;10.10;99.90;;;;;;5099799;28;20219;-92
2023/02/03 05:13:06;;;;;;;4.37;1.60;;;10.10;99.90;;;;;;5098593;28;20205;-91
2023/02/03 05:15:33;;;;;;;5.17;1.43;;;10.10;99.90;;;;;;5097227;28;20231;-93
2023/02/03 05:18:06;;;;;;;2.47;1.27;;;10.10;99.90;;;;;;5097442;28;20250;-93
2023/02/03 05:20:39;;;;;;;7.27;2.03;;;10.10;99.90;;;;;;5097249;28;20645;-92
2023/02/03 05:23:08;;;;;;;8.20;1.53;;;10.10;99.90;;;;;;5096692;28;20276;-93
2023/02/03 05:25:35;;;;;;;4.60;1.17;;;10.10;99.90;;;;;;5098255;28;20232;-92
2023/02/03 05:28:04;;;;;;;5.83;1.30;;;10.10;99.90;;;;;;5097298;28;20208;-90
2023/02/03 05:30:31;;;;;;;6.30;1.87;;;10.10;99.90;;;;;;5097361;28;20204;-92
2023/02/03 05:32:58;;;;;;;5.93;1.60;;;10.10;99.90;;;;;;5096334;28;20594;-90
2023/02/03 05:35:29;;;;;;;4.23;1.57;;;10.10;99.90;;;;;;5098091;28;20236;-91
2023/02/03 05:37:56;;;;;;;6.00;1.33;;;10.10;99.90;;;;;;5098107;28;20212;-94
2023/02/03 05:43:12;;;;;;;5.30;1.37;;;10.00;99.90;;;;;;5097640;28;20683;-92
2023/02/03 05:45:39;;;;;;;2.75;1.30;;;10.10;99.90;;;;;;5095702;28;20362;-84
2023/02/03 05:48:07;;;;;;;3.87;1.30;;;10.10;99.90;;;;;;5095439;28;20209;-86
2023/02/03 05:50:36;;;;;;;4.13;1.20;;;10.00;99.90;;;;;;5095885;28;20243;-88
2023/02/03 05:53:06;;;;;;;3.87;1.30;;;10.00;99.90;;;;;;5095381;28;20209;-88
2023/02/03 05:55:33;;;;;;;2.13;0.90;;;10.10;99.90;;;;;;5095111;28;20213;-89
2023/02/03 05:58:03;;;;;;;8.67;1.40;;;10.20;99.90;;;;;;5094865;28;20752;-89
2023/02/03 06:00:33;;;;;;;4.77;1.00;;;10.10;99.90;;;;;;5099087;28;20201;-86
2023/02/03 06:03:03;;;;;;;2.43;1.10;;;10.20;99.90;;;;;;5094988;28;20342;-86
2023/02/03 06:05:33;;;;;;;5.77;1.90;;;10.20;99.90;;;;;;5096017;28;20212;-86
2023/02/03 06:08:02;;;;;;;2.70;1.27;;;10.20;99.90;;;;;;5095024;28;20675;-88
2023/02/03 06:10:29;;;;;;;4.60;1.20;;;10.30;99.90;;;;;;5095868;28;20189;-89
2023/02/03 06:12:59;;;;;;;3.50;1.27;;;10.30;99.90;;;;;;5095492;28;20267;-89
2023/02/03 06:15:29;;;;;;;4.67;1.40;;;10.20;99.90;;;;;;5093995;28;20220;-86
2023/02/03 06:17:59;;;;;;;3.60;1.63;;;10.20;99.90;;;;;;5095925;28;20201;-89
2023/02/03 06:20:27;;;;;;;4.83;1.23;;;10.20;99.90;;;;;;5094068;28;20205;-89
2023/02/03 06:22:57;;;;;;;6.90;1.77;;;10.10;99.90;;;;;;5094121;28;20212;-88
2023/02/03 06:25:26;;;;;;;4.83;1.60;;;10.20;99.90;;;;;;5094851;28;20205;-88
2023/02/03 06:27:56;;;;;;;4.33;1.33;;;10.10;99.90;;;;;;5095228;28;20205;-90
2023/02/03 06:30:24;;;;;;;2.60;1.03;;;10.10;99.90;;;;;;5094906;28;20206;-86
2023/02/03 06:32:51;;;;;;;5.50;1.40;;;10.00;99.90;;;;;;5094858;28;20205;-89
2023/02/03 06:35:25;;;;;;;4.23;1.77;;;10.00;99.90;;;;;;5094451;28;20221;-91
2023/02/03 06:37:52;;;;;;;6.30;1.47;;;10.00;99.90;;;;;;5094935;28;20201;-87
2023/02/03 06:40:22;;;;;;;3.73;1.20;;;10.10;99.90;;;;;;5094362;28;20211;-87
2023/02/03 06:42:51;;;;;;;6.17;1.47;;;10.10;99.90;;;;;;5089291;28;20216;-88
2023/02/03 06:45:18;;;;;;;4.57;1.20;;;10.20;99.90;;;;;;5086921;28;20217;-82
2023/02/03 06:47:46;;;;;;;6.10;1.93;;;10.10;99.90;;;;;;5084393;28;20201;-85
2023/02/03 06:50:15;;;;;;;4.10;1.30;;;10.10;99.90;;;;;;5082940;28;20229;-85
2023/02/03 06:52:45;;;;;;;4.97;1.30;;;10.10;99.90;;;;;;5093838;28;20204;-85
2023/02/03 06:55:11;;;;;;;4.87;1.40;;;10.10;99.90;;;;;;5094623;28;20237;-88
2023/02/03 06:57:44;;;;;;;3.80;1.47;;;10.10;99.90;;;;;;5094010;28;20201;-88
2023/02/03 07:00:18;;;;;;;6.13;1.40;;;10.10;99.90;;;;;;5081170;28;20664;-89
2023/02/03 07:02:53;;;;;;;5.50;1.43;;;10.10;99.90;;;;;;5095316;28;20192;-87
2023/02/03 07:05:22;;;;;;;5.30;1.23;;;10.10;99.90;;;;;;5094102;28;20196;-87
2023/02/03 07:07:53;;;;;;;4.97;1.20;;;10.20;99.90;;;;;;5094803;28;20225;-86
2023/02/03 07:10:20;;;;;;;4.50;1.30;;;10.30;99.90;;;;;;5094453;28;20197;-83
2023/02/03 07:12:54;;;;;;;5.43;1.47;;;10.20;99.90;;;;;;5082350;28;20202;-88
2023/02/03 07:15:22;;;;;;;4.30;1.50;;;10.20;99.90;;;;;;5080839;28;20233;-86
2023/02/03 07:17:57;;;;;;;4.50;1.33;;;10.20;99.90;;;;;;5084646;28;20205;-83
2023/02/03 07:20:27;;;;;;;5.40;1.47;;;10.20;99.90;;;;;;5086426;28;20208;-85
2023/02/03 07:22:57;;;;;;;5.83;1.67;;;10.20;99.90;;;;;;5093009;28;20213;-86
2023/02/03 07:25:28;;;;;;;9.27;1.83;;;10.10;99.90;;;;;;5094512;28;20201;-85
2023/02/03 07:27:55;;;;;;;2.77;1.40;;;10.10;99.90;;;;;;5080593;28;20205;-84
2023/02/03 07:30:23;;;;;;;5.63;1.47;;;10.00;99.90;;;;;;5097154;28;20209;-85
2023/02/03 07:32:52;;;;;;;8.87;1.73;;;10.10;99.90;;;;;;5100753;28;20201;-83
2023/02/03 07:35:21;;;;;;;7.47;1.83;;;10.10;99.90;;;;;;5100299;28;20232;-85
2023/02/03 07:37:48;;;;;;;5.73;1.30;;;10.10;99.90;;;;;;5100788;28;20249;-87
2023/02/03 07:40:20;;;;;;;6.37;1.60;;;10.20;99.90;;;;;;5096018;28;20684;-86
2023/02/03 07:42:49;;;;;;;3.80;1.60;;;10.20;99.90;;;;;;5092335;28;20641;-84
2023/02/03 07:45:23;;;;;;;3.97;1.50;;;10.30;99.90;;;;;;5086507;28;20225;-84
2023/02/03 07:47:51;;;;;;;4.17;1.40;;;10.20;99.90;;;;;;5100264;28;20205;-87
2023/02/03 07:50:18;;;;;;;3.97;1.43;;;10.30;99.90;;;;;;5090218;28;20201;-86
2023/02/03 07:52:45;;;;;;;6.27;1.90;;;10.20;99.90;;;;;;5090810;28;20670;-88
2023/02/03 07:55:12;;;;;;;5.73;1.90;;;10.30;99.90;;;;;;5092705;28;20237;-86
2023/02/03 07:57:42;;;;;;;5.63;2.07;;;10.30;99.90;;;;;;5094777;28;20197;-88
2023/02/03 08:00:10;;;;;;;4.37;1.40;;;10.20;99.90;;;;;;5093053;28;20193;-88
2023/02/03 08:02:37;;;;;;;6.07;1.83;;;10.10;99.90;;;;;;5089662;28;20202;-88
2023/02/03 08:05:04;;;;;;;3.80;1.50;;;10.10;99.90;;;;;;5090125;28;20197;-89
2023/02/03 08:07:32;;;;;;;8.57;1.53;;;10.20;99.90;;;;;;5089847;28;20443;-87
2023/02/03 08:10:00;;;;;;;4.67;1.67;;;10.20;99.90;;;;;;5090907;28;20201;-86
2023/02/03 08:12:26;;;;;;;3.67;1.40;;;10.20;99.90;;;;;;5095664;28;20736;-88
2023/02/03 08:14:54;;;;;;;5.10;1.67;;;10.20;99.90;;;;;;5090806;28;20201;-86
2023/02/03 08:17:22;;;;;;;4.73;1.50;;;10.20;99.90;;;;;;5098403;28;20220;-84
2023/02/03 08:19:49;;;;;;;3.13;1.77;;;10.10;99.90;;;;;;5090312;28;20282;-86
2023/02/03 08:22:15;;;;;;;6.17;1.80;;;10.20;99.90;;;;;;5089619;28;20193;-87
2023/02/03 08:24:44;;;;;;;4.03;1.40;;;10.20;99.90;;;;;;5086415;28;20209;-86
2023/02/03 08:27:11;;;;;;;2.57;1.13;;;10.30;99.90;;;;;;5085961;28;20197;-86
2023/02/03 08:29:38;;;;;;;5.27;1.40;;;10.20;99.90;;;;;;5096022;28;20262;-85
2023/02/03 08:32:09;;;;;;;6.50;1.73;;;10.20;99.90;;;;;;5076681;28;20207;-86
2023/02/03 08:34:36;;;;;;;4.27;1.30;;;10.30;99.90;;;;;;5076705;28;20202;-85
2023/02/03 08:37:03;;;;;;;5.17;1.63;;;10.20;99.90;;;;;;5089074;28;20221;-86
2023/02/03 08:39:31;;;;;;;8.63;1.47;;;10.20;99.90;;;;;;5084878;28;20220;-86
2023/02/03 08:41:58;;;;;;;3.23;1.50;;;10.30;99.90;;;;;;5086559;28;20210;-87
2023/02/03 08:44:25;;;;;;;3.23;1.40;;;10.30;99.90;;;;;;5096372;28;20236;-87
2023/02/03 08:46:53;;;;;;;4.20;1.00;;;10.40;99.90;;;;;;5095780;28;20204;-87
2023/02/03 08:49:22;;;;;;;4.47;1.57;;;10.40;99.90;;;;;;5095961;28;20205;-87
2023/02/03 08:51:48;;;;;;;4.40;1.40;;;10.40;99.90;;;;;;5092442;28;20207;-89
2023/02/03 08:54:15;;;;;;;6.97;1.60;;;10.40;99.90;;;;;;5096565;28;20197;-85
2023/02/03 08:56:42;;;;;;;4.97;1.53;;;10.50;99.90;;;;;;5095397;28;20236;-86
2023/02/03 08:59:09;;;;;;;3.83;1.47;;;10.50;99.90;;;;;;5096687;28;20605;-86
2023/02/03 09:01:39;;;;;;;3.90;1.47;;;10.50;99.90;;;;;;5095618;28;20208;-83
2023/02/03 09:04:07;;;;;;;5.40;1.60;;;10.60;99.90;;;;;;5095703;28;20423;-86
2023/02/03 09:06:36;;;;;;;6.77;1.40;;;10.60;99.90;;;;;;5095715;28;20480;-84
2023/02/03 09:09:04;;;;;;;5.27;1.63;;;10.60;99.90;;;;;;5089618;28;20572;-86
2023/02/03 09:11:31;;;;;;;4.33;1.30;;;10.60;99.90;;;;;;5090129;28;20205;-84
2023/02/03 09:13:58;;;;;;;7.50;1.40;;;10.60;99.90;;;;;;5090675;28;20219;-85
2023/02/03 09:16:26;;;;;;;4.17;1.30;;;10.60;99.90;;;;;;5093543;28;20217;-86
2023/02/03 09:18:56;;;;;;;5.03;1.63;;;10.60;99.90;;;;;;5092497;28;20209;-89
2023/02/03 09:21:23;;;;;;;3.63;1.40;;;10.50;99.90;;;;;;5098423;28;20292;-90
2023/02/03 09:23:52;;;;;;;1.83;1.17;;;10.60;99.90;;;;;;5100750;28;20609;-83
2023/02/03 09:26:20;;;;;;;7.10;1.90;;;10.60;99.90;;;;;;5085186;28;20547;-82
2023/02/03 09:28:49;;;;;;;4.20;1.60;;;10.70;99.90;;;;;;5083764;28;20202;-85
2023/02/03 09:31:18;;;;;;;6.10;1.80;;;10.70;99.90;;;;;;5091617;28;20213;-85
2023/02/03 09:33:46;;;;;;;2.83;1.40;;;10.80;99.90;;;;;;5090073;28;20724;-81
2023/02/03 09:36:19;;;;;;;5.23;1.30;;;10.90;99.90;;;;;;5090040;28;20602;-82
2023/02/03 09:38:47;;;;;;;4.20;1.50;;;10.90;99.90;;;;;;5084361;28;20199;-82
2023/02/03 09:41:34;;;;;;;6.10;1.73;;;10.90;99.90;;;;;;5076739;28;20194;-84
2023/02/03 09:44:08;;;;;;;3.43;1.60;;;10.90;99.90;;;;;;5082647;28;20223;-79
2023/02/03 09:46:40;;;;;;;4.80;2.10;;;10.90;99.90;;;;;;5089588;28;20213;-79
2023/02/03 09:49:15;;;;;;;7.47;2.00;;;10.90;99.90;;;;;;5085420;28;20665;-80
2023/02/03 09:51:48;;;;;;;8.57;2.50;;;10.90;99.90;;;;;;5087838;28;20230;-89
2023/02/03 09:54:21;;;;;;;3.53;1.90;;;10.90;99.90;;;;;;5082485;28;20236;-84
2023/02/03 09:56:53;;;;;;;4.70;1.90;;;10.90;99.90;;;;;;5084951;28;20250;-87
2023/02/03 09:59:22;;;;;;;5.03;2.07;;;11.00;99.90;;;;;;5094282;28;20213;-91
2023/02/03 10:01:59;;;;;;;6.23;2.97;;;11.00;99.90;;;;;;5088173;28;20205;-91
2023/02/03 10:04:32;;;;;;;4.20;2.07;;;11.10;99.90;;;;;;5090879;28;20203;-85
2023/02/03 10:07:09;;;;;;;2.30;1.60;;;11.10;99.90;;;;;;5090787;28;20211;-81
2023/02/03 10:09:49;;;;;;;2.73;1.70;;;11.20;99.90;;;;;;5090028;28;20557;-86
2023/02/03 10:12:50;;;;;;;4.23;1.70;;;11.10;99.90;;;;;;5097240;28;20198;-82
2023/02/03 10:15:47;;;;;;;3.50;1.93;;;11.10;99.90;;;;;;5089050;28;20214;-84
2023/02/03 10:18:19;;;;;;;4.13;2.00;;;11.30;99.90;;;;;;5092374;28;20467;-81
2023/02/03 10:20:50;;;;;;;6.90;1.87;;;11.30;99.90;;;;;;5094771;28;20203;-82
2023/02/03 10:23:21;;;;;;;2.53;2.10;;;11.20;99.90;;;;;;5078417;28;20203;-81
2023/02/03 10:25:54;;;;;;;3.17;2.00;;;11.20;99.90;;;;;;5094330;28;20209;-79
2023/02/03 10:28:23;;;;;;;4.10;2.07;;;11.30;99.90;;;;;;5095719;28;20230;-85
2023/02/03 10:30:56;;;;;;;6.83;2.13;;;11.30;99.90;;;;;;5083920;28;20196;-83
2023/02/03 10:33:26;;;;;;;4.67;1.60;;;11.40;99.90;;;;;;5097095;28;20297;-87
2023/02/03 10:35:56;;;;;;;3.43;1.60;;;11.40;99.90;;;;;;5081441;28;20230;-82
2023/02/03 10:38:35;;;;;;;6.27;1.97;;;11.50;99.90;;;;;;5094942;28;20215;-80
2023/02/03 10:41:04;;;;;;;4.63;2.27;;;11.40;99.90;;;;;;5097815;28;20207;-85
2023/02/03 10:43:50;;;;;;;3.93;1.80;;;11.40;99.90;;;;;;5083128;28;20222;-82
2023/02/03 10:46:20;;;;;;;3.90;1.70;;;11.30;99.90;;;;;;5085070;28;20244;-87
2023/02/03 10:48:48;;;;;;;6.87;2.33;;;11.20;99.90;;;;;;5075333;28;20195;-87
2023/02/03 10:51:19;;;;;;;8.83;1.80;;;11.40;99.90;;;;;;5086669;28;20662;-85
2023/02/03 10:53:46;;;;;;;4.45;1.90;;;11.40;99.90;;;;;;5079813;28;20494;-82
2023/02/03 10:56:16;;;;;;;5.30;1.43;;;11.70;99.90;;;;;;5094581;28;20222;-85
2023/02/03 10:58:49;;;;;;;5.23;1.90;;;11.60;99.90;;;;;;5074738;28;20632;-87
2023/02/03 11:01:19;;;;;;;5.93;1.60;;;11.40;99.90;;;;;;5088236;28;20227;-88
2023/02/03 11:03:57;;;;;;;6.70;2.57;;;11.40;99.90;;;;;;5078400;28;20669;-83
2023/02/03 11:06:24;;;;;;;4.57;1.57;;;11.50;99.90;;;;;;5090959;28;20193;-84
2023/02/03 11:08:54;;;;;;;2.67;1.33;;;11.50;99.90;;;;;;5085448;28;20214;-88
2023/02/03 11:11:24;;;;;;;3.13;1.67;;;11.40;99.90;;;;;;5076585;28;20187;-87
2023/02/03 11:14:15;;;;;;;8.43;1.97;;;11.40;99.90;;;;;;5072975;28;20229;-87
2023/02/03 11:16:46;;;;;;;3.83;1.50;;;11.30;99.90;;;;;;5083729;28;20222;-82
2023/02/03 11:19:17;;;;;;;3.57;1.83;;;11.20;99.90;;;;;;5092630;28;20218;-81
2023/02/03 11:21:47;;;;;;;2.63;1.77;;;11.30;99.90;;;;;;5082342;28;20199;-84
2023/02/03 11:24:20;;;;;;;3.87;1.60;;;11.20;99.90;;;;;;5092612;28;20217;-88
2023/02/03 11:26:51;;;;;;;2.60;1.60;;;11.30;99.90;;;;;;5093880;28;20222;-86
2023/02/03 11:29:22;;;;;;;1.60;1.50;;;11.30;99.90;;;;;;5081278;28;20211;-87
2023/02/03 11:31:53;;;;;;;5.30;1.80;;;11.20;99.90;;;;;;5095532;28;20213;-89
2023/02/03 11:34:25;;;;;;;6.97;1.87;;;11.30;99.90;;;;;;5091514;28;20561;-83
2023/02/03 11:36:52;;;;;;;5.00;1.90;;;11.20;99.90;;;;;;5090707;28;20232;-74
2023/02/03 11:39:23;;;;;;;2.97;1.73;;;11.30;99.90;;;;;;5092949;28;20213;-75
2023/02/03 11:41:50;;;;;;;6.13;2.33;;;11.10;99.90;;;;;;5094339;28;20656;-75
2023/02/03 11:44:19;;;;;;;5.77;1.73;;;11.10;99.90;;;;;;5092918;28;20233;-77
2023/02/03 11:46:51;;;;;;;7.87;2.10;;;11.10;99.90;;;;;;5093225;28;20667;-87
2023/02/03 11:49:52;;;;;;;3.30;2.10;;;11.10;99.90;;;;;;5093311;28;20212;-80
2023/02/03 11:52:46;;;;;;;4.67;1.83;;;11.10;99.90;;;;;;5091687;28;20202;-78
2023/02/03 11:55:31;;;;;;;4.03;2.23;;;11.20;99.90;;;;;;5091995;28;20205;-84
2023/02/03 11:58:13;;;;;;;5.50;2.47;;;11.30;99.90;;;;;;5093717;28;20237;-85
2023/02/03 12:00:47;;;;;;;3.57;1.57;;;11.30;99.90;;;;;;5093066;28;20561;-78
2023/02/03 12:03:51;;;;;;;3.83;1.80;;;11.30;99.90;;;;;;5092793;28;20198;-79
2023/02/03 12:06:35;;;;;;;3.37;2.03;;;11.30;99.90;;;;;;5096115;28;20221;-79
2023/02/03 12:09:22;;;;;;;3.10;1.60;;;11.50;99.90;;;;;;5095909;28;20218;-77
2023/02/03 12:12:07;;;;;;;3.00;2.10;;;11.40;99.90;;;;;;5096609;28;20205;-78
2023/02/03 12:14:47;;;;;;;5.43;2.03;;;11.40;99.90;;;;;;5098428;28;20194;-76
2023/02/03 12:17:34;;;;;;;5.33;2.13;;;11.30;99.90;;;;;;5096829;28;20243;-78
2023/02/03 12:20:29;;;;;;;4.70;2.27;;;11.30;99.90;;;;;;5095955;28;20213;-78
2023/02/03 12:23:08;;;;;;;4.83;1.77;;;11.40;99.90;;;;;;5093687;28;20208;-79
2023/02/03 12:25:43;;;;;;;2.77;2.10;;;11.50;99.90;;;;;;5095793;28;20216;-80
2023/02/03 12:28:24;;;;;;;3.90;1.97;;;11.60;99.90;;;;;;5095515;28;20216;-77
2023/02/03 12:30:55;;;;;;;3.57;1.93;;;11.70;99.90;;;;;;5095545;28;20553;-79
2023/02/03 12:33:30;;;;;;;6.67;2.50;;;11.70;99.90;;;;;;5094927;28;20203;-79
2023/02/03 12:36:05;;;;;;;3.87;1.80;;;11.60;99.90;;;;;;5095895;28;20293;-80
2023/02/03 12:38:38;;;;;;;4.60;2.17;;;11.60;99.90;;;;;;5095690;28;20265;-77
2023/02/03 12:41:11;;;;;;;2.10;1.90;;;11.60;99.90;;;;;;5095258;28;20301;-81
2023/02/03 12:43:42;;;;;;;5.53;2.17;;;11.50;99.90;;;;;;5096271;28;20218;-78
2023/02/03 12:46:16;;;;;;;5.47;2.20;;;11.60;99.90;;;;;;5095592;28;20596;-90
2023/02/03 12:48:48;;;;;;;4.50;2.07;;;11.60;99.90;;;;;;5095927;28;20207;-87
2023/02/03 12:51:24;;;;;;;6.63;2.10;;;11.70;99.90;;;;;;5083227;28;20566;-89
2023/02/03 12:53:56;;;;;;;7.33;2.17;;;11.70;99.90;;;;;;5089815;28;20202;-87
2023/02/03 12:56:27;;;;;;;6.90;2.00;;;11.70;99.90;;;;;;5097304;28;20200;-82
2023/02/03 12:58:59;;;;;;;7.13;2.10;;;11.70;99.90;;;;;;5082067;28;20211;-78
2023/02/03 13:01:30;;;;;;;4.90;2.17;;;11.80;99.90;;;;;;5095002;28;20552;-82
2023/02/03 13:04:05;;;;;;;3.53;1.90;;;11.80;99.90;;;;;;5096033;28;20222;-83
2023/02/03 13:06:40;;;;;;;5.63;2.10;;;11.80;99.90;;;;;;5096391;28;20207;-82
2023/02/03 13:09:22;;;;;;;4.53;1.83;;;11.80;99.90;;;;;;5083947;28;20203;-83
2023/02/03 13:11:56;;;;;;;4.90;1.90;;;11.80;99.90;;;;;;5082296;28;20203;-86
2023/02/03 13:14:28;;;;;;;5.67;2.00;;;11.80;99.90;;;;;;5097458;28;20325;-90